sensor_id;sensor_type;location;lat;lon;timestamp;pressure;altitude;pressure_sealevel;temperature;humidity
25510;BME280;13413;52.336;21.200;2023-04-06T00:01:28;101102.88;;;3.84;51.25
25510;BME280;13413;52.336;21.200;2023-04-06T00:04:22;101100.58;;;3.82;51.19
25510;BME280;13413;52.336;21.200;2023-04-06T00:07:16;101098.56;;;3.85;51.45
25510;BME280;13413;52.336;21.200;2023-04-06T00:10:11;101098.12;;;3.86;51.36
25510;BME280;13413;52.336;21.200;2023-04-06T00:13:05;101092.58;;;3.86;51.37
25510;BME280;13413;52.336;21.200;2023-04-06T00:15:59;101088.05;;;3.83;51.25
25510;BME280;13413;52.336;21.200;2023-04-06T00:18:53;101088.41;;;3.81;51.09
25510;BME280;13413;52.336;21.200;2023-04-06T00:21:47;101089.34;;;3.80;51.27
25510;BME280;13413;52.336;21.200;2023-04-06T00:32:13;101079.23;;;3.84;51.55
25510;BME280;13413;52.336;21.200;2023-04-06T00:35:08;101073.63;;;3.84;51.51
25510;BME280;13413;52.336;21.200;2023-04-06T00:38:03;101068.16;;;3.82;51.58
25510;BME280;13413;52.336;21.200;2023-04-06T00:40:57;101069.73;;;3.85;51.50
25510;BME280;13413;52.336;21.200;2023-04-06T00:43:51;101070.41;;;3.85;51.74
25510;BME280;13413;52.336;21.200;2023-04-06T00:46:44;101066.95;;;3.89;51.80
25510;BME280;13413;52.336;21.200;2023-04-06T00:49:39;101064.04;;;3.91;51.72
25510;BME280;13413;52.336;21.200;2023-04-06T00:52:33;101066.22;;;3.91;51.92
25510;BME280;13413;52.336;21.200;2023-04-06T00:55:28;101065.11;;;3.92;51.85
25510;BME280;13413;52.336;21.200;2023-04-06T00:58:23;101063.79;;;3.91;51.73
25510;BME280;13413;52.336;21.200;2023-04-06T01:01:18;101062.41;;;3.91;51.79
25510;BME280;13413;52.336;21.200;2023-04-06T01:04:12;101062.83;;;3.90;51.97
25510;BME280;13413;52.336;21.200;2023-04-06T01:07:06;101056.71;;;3.88;51.95
25510;BME280;13413;52.336;21.200;2023-04-06T01:10:00;101055.52;;;3.87;52.02
25510;BME280;13413;52.336;21.200;2023-04-06T01:12:54;101054.04;;;3.89;52.01
25510;BME280;13413;52.336;21.200;2023-04-06T01:18:43;101050.01;;;3.84;51.86
25510;BME280;13413;52.336;21.200;2023-04-06T01:21:35;101047.48;;;3.83;51.98
25510;BME280;13413;52.336;21.200;2023-04-06T01:24:29;101046.99;;;3.80;52.10
25510;BME280;13413;52.336;21.200;2023-04-06T01:27:23;101045.13;;;3.79;52.25
25510;BME280;13413;52.336;21.200;2023-04-06T01:30:17;101042.66;;;3.77;51.88
25510;BME280;13413;52.336;21.200;2023-04-06T01:33:11;101039.15;;;3.77;52.36
25510;BME280;13413;52.336;21.200;2023-04-06T01:36:06;101040.20;;;3.77;52.18
25510;BME280;13413;52.336;21.200;2023-04-06T01:39:01;101035.36;;;3.77;52.17
25510;BME280;13413;52.336;21.200;2023-04-06T01:41:56;101027.61;;;3.75;52.23
25510;BME280;13413;52.336;21.200;2023-04-06T01:44:50;101029.98;;;3.73;52.31
25510;BME280;13413;52.336;21.200;2023-04-06T01:47:44;101031.52;;;3.74;52.57
25510;BME280;13413;52.336;21.200;2023-04-06T01:50:38;101027.15;;;3.74;52.31
25510;BME280;13413;52.336;21.200;2023-04-06T01:53:32;101030.47;;;3.71;52.45
25510;BME280;13413;52.336;21.200;2023-04-06T01:56:26;101027.93;;;3.70;52.35
25510;BME280;13413;52.336;21.200;2023-04-06T01:59:20;101029.91;;;3.70;52.51
25510;BME280;13413;52.336;21.200;2023-04-06T02:02:14;101031.21;;;3.69;52.62
25510;BME280;13413;52.336;21.200;2023-04-06T02:05:09;101030.58;;;3.68;52.53
25510;BME280;13413;52.336;21.200;2023-04-06T02:08:03;101026.54;;;3.66;52.63
25510;BME280;13413;52.336;21.200;2023-04-06T02:10:57;101022.95;;;3.65;52.65
25510;BME280;13413;52.336;21.200;2023-04-06T02:13:51;101019.52;;;3.63;52.68
25510;BME280;13413;52.336;21.200;2023-04-06T02:16:45;101016.30;;;3.62;52.90
25510;BME280;13413;52.336;21.200;2023-04-06T02:19:39;101013.32;;;3.60;52.83
25510;BME280;13413;52.336;21.200;2023-04-06T02:22:33;101016.02;;;3.59;52.91
25510;BME280;13413;52.336;21.200;2023-04-06T02:25:27;101013.23;;;3.59;53.00
25510;BME280;13413;52.336;21.200;2023-04-06T02:28:21;101010.23;;;3.57;52.96
25510;BME280;13413;52.336;21.200;2023-04-06T02:31:16;101008.77;;;3.56;53.11
25510;BME280;13413;52.336;21.200;2023-04-06T02:34:10;101007.15;;;3.54;53.04
25510;BME280;13413;52.336;21.200;2023-04-06T02:37:04;101006.98;;;3.52;53.21
25510;BME280;13413;52.336;21.200;2023-04-06T02:39:58;101003.83;;;3.49;53.39
25510;BME280;13413;52.336;21.200;2023-04-06T02:42:52;101001.73;;;3.49;53.36
25510;BME280;13413;52.336;21.200;2023-04-06T02:52:04;100999.70;;;3.46;53.41
25510;BME280;13413;52.336;21.200;2023-04-06T02:54:57;101000.52;;;3.42;53.84
25510;BME280;13413;52.336;21.200;2023-04-06T02:57:51;100999.59;;;3.41;53.75
25510;BME280;13413;52.336;21.200;2023-04-06T03:00:45;100998.23;;;3.38;53.85
25510;BME280;13413;52.336;21.200;2023-04-06T03:03:39;100998.30;;;3.35;53.99
25510;BME280;13413;52.336;21.200;2023-04-06T03:06:34;100997.13;;;3.32;54.00
25510;BME280;13413;52.336;21.200;2023-04-06T03:09:27;101000.96;;;3.29;54.13
25510;BME280;13413;52.336;21.200;2023-04-06T03:12:21;100999.73;;;3.27;54.22
25510;BME280;13413;52.336;21.200;2023-04-06T03:15:15;100999.45;;;3.26;54.46
25510;BME280;13413;52.336;21.200;2023-04-06T03:18:12;101001.92;;;3.23;54.15
25510;BME280;13413;52.336;21.200;2023-04-06T03:21:06;101000.08;;;3.20;54.44
25510;BME280;13413;52.336;21.200;2023-04-06T03:24:00;101005.12;;;3.16;54.46
25510;BME280;13413;52.336;21.200;2023-04-06T03:26:54;101002.20;;;3.12;54.72
25510;BME280;13413;52.336;21.200;2023-04-06T03:29:47;101002.21;;;3.12;54.90
25510;BME280;13413;52.336;21.200;2023-04-06T03:32:42;101005.42;;;3.14;54.68
25510;BME280;13413;52.336;21.200;2023-04-06T03:35:36;101003.48;;;3.12;54.93
25510;BME280;13413;52.336;21.200;2023-04-06T03:38:29;101007.52;;;3.11;54.90
25510;BME280;13413;52.336;21.200;2023-04-06T03:41:24;101001.20;;;3.10;54.73
25510;BME280;13413;52.336;21.200;2023-04-06T03:44:21;101003.43;;;3.08;54.98
25510;BME280;13413;52.336;21.200;2023-04-06T03:47:14;101004.29;;;3.08;54.82
25510;BME280;13413;52.336;21.200;2023-04-06T03:50:10;101004.39;;;3.06;55.17
25510;BME280;13413;52.336;21.200;2023-04-06T03:53:03;101001.34;;;3.05;55.12
25510;BME280;13413;52.336;21.200;2023-04-06T03:55:57;101004.91;;;3.04;54.97
25510;BME280;13413;52.336;21.200;2023-04-06T03:58:51;101003.27;;;3.03;55.18
25510;BME280;13413;52.336;21.200;2023-04-06T04:01:46;101004.35;;;3.02;55.27
25510;BME280;13413;52.336;21.200;2023-04-06T04:04:40;100999.39;;;3.03;55.49
25510;BME280;13413;52.336;21.200;2023-04-06T04:07:34;100997.27;;;3.01;55.68
25510;BME280;13413;52.336;21.200;2023-04-06T04:10:28;101001.48;;;3.01;55.52
25510;BME280;13413;52.336;21.200;2023-04-06T04:13:23;101002.08;;;3.00;55.48
25510;BME280;13413;52.336;21.200;2023-04-06T04:16:17;101000.77;;;2.96;55.59
25510;BME280;13413;52.336;21.200;2023-04-06T04:19:10;100998.80;;;2.95;55.75
25510;BME280;13413;52.336;21.200;2023-04-06T04:22:05;100995.52;;;2.94;55.57
25510;BME280;13413;52.336;21.200;2023-04-06T04:24:58;100992.95;;;2.93;55.78
25510;BME280;13413;52.336;21.200;2023-04-06T04:27:53;100991.01;;;2.92;55.84
25510;BME280;13413;52.336;21.200;2023-04-06T04:30:47;100993.60;;;2.92;55.91
25510;BME280;13413;52.336;21.200;2023-04-06T04:33:41;100993.92;;;2.90;55.97
25510;BME280;13413;52.336;21.200;2023-04-06T04:36:35;100994.34;;;2.89;55.84
25510;BME280;13413;52.336;21.200;2023-04-06T04:39:30;100988.99;;;2.86;55.96
25510;BME280;13413;52.336;21.200;2023-04-06T04:42:23;100988.38;;;2.87;55.95
25510;BME280;13413;52.336;21.200;2023-04-06T04:45:18;100982.79;;;2.89;56.21
25510;BME280;13413;52.336;21.200;2023-04-06T04:48:12;100979.52;;;2.91;56.24
25510;BME280;13413;52.336;21.200;2023-04-06T04:51:06;100979.50;;;2.91;56.06
25510;BME280;13413;52.336;21.200;2023-04-06T04:54:00;100980.31;;;2.89;55.98
25510;BME280;13413;52.336;21.200;2023-04-06T04:56:53;100981.23;;;2.91;56.10
25510;BME280;13413;52.336;21.200;2023-04-06T04:59:48;100978.11;;;2.94;56.18
25510;BME280;13413;52.336;21.200;2023-04-06T05:02:41;100977.43;;;2.96;56.41
25510;BME280;13413;52.336;21.200;2023-04-06T05:11:36;100977.70;;;3.04;56.11
25510;BME280;13413;52.336;21.200;2023-04-06T05:14:30;100977.75;;;3.05;56.29
25510;BME280;13413;52.336;21.200;2023-04-06T05:17:25;100980.50;;;3.06;56.24
25510;BME280;13413;52.336;21.200;2023-04-06T05:20:18;100974.90;;;3.11;56.15
25510;BME280;13413;52.336;21.200;2023-04-06T05:23:13;100975.04;;;3.18;56.08
25510;BME280;13413;52.336;21.200;2023-04-06T05:26:06;100977.16;;;3.22;55.86
25510;BME280;13413;52.336;21.200;2023-04-06T05:29:00;100977.05;;;3.26;56.05
25510;BME280;13413;52.336;21.200;2023-04-06T05:31:55;100978.24;;;3.32;56.11
25510;BME280;13413;52.336;21.200;2023-04-06T05:34:49;100975.04;;;3.37;56.16
25510;BME280;13413;52.336;21.200;2023-04-06T05:37:43;100976.80;;;3.41;55.92
25510;BME280;13413;52.336;21.200;2023-04-06T05:40:37;100973.34;;;3.48;55.86
25510;BME280;13413;52.336;21.200;2023-04-06T05:43:31;100968.67;;;3.52;55.79
25510;BME280;13413;52.336;21.200;2023-04-06T05:46:26;100971.46;;;3.54;55.50
25510;BME280;13413;52.336;21.200;2023-04-06T05:49:19;100972.95;;;3.55;55.63
25510;BME280;13413;52.336;21.200;2023-04-06T05:52:13;100970.60;;;3.58;55.54
25510;BME280;13413;52.336;21.200;2023-04-06T05:55:08;100965.77;;;3.62;55.47
25510;BME280;13413;52.336;21.200;2023-04-06T05:58:02;100963.48;;;3.69;55.60
25510;BME280;13413;52.336;21.200;2023-04-06T06:00:59;100962.05;;;3.74;55.66
25510;BME280;13413;52.336;21.200;2023-04-06T06:03:54;100964.48;;;3.77;55.53
25510;BME280;13413;52.336;21.200;2023-04-06T06:06:47;100957.71;;;3.77;55.53
25510;BME280;13413;52.336;21.200;2023-04-06T06:09:41;100965.81;;;3.76;55.55
25510;BME280;13413;52.336;21.200;2023-04-06T06:12:35;100964.04;;;3.78;55.73
25510;BME280;13413;52.336;21.200;2023-04-06T06:15:29;100963.96;;;3.84;55.69
25510;BME280;13413;52.336;21.200;2023-04-06T06:18:23;100960.42;;;3.89;55.78
25510;BME280;13413;52.336;21.200;2023-04-06T06:21:18;100955.23;;;3.95;55.52
25510;BME280;13413;52.336;21.200;2023-04-06T06:24:12;100956.18;;;3.98;55.73
25510;BME280;13413;52.336;21.200;2023-04-06T06:27:05;100958.45;;;4.05;55.57
25510;BME280;13413;52.336;21.200;2023-04-06T06:30:00;100961.71;;;4.08;55.67
25510;BME280;13413;52.336;21.200;2023-04-06T06:32:53;100963.34;;;4.07;55.44
25510;BME280;13413;52.336;21.200;2023-04-06T06:35:48;100956.89;;;4.05;55.50
25510;BME280;13413;52.336;21.200;2023-04-06T06:38:43;100958.90;;;4.08;55.74
25510;BME280;13413;52.336;21.200;2023-04-06T06:41:36;100956.73;;;4.15;55.71
25510;BME280;13413;52.336;21.200;2023-04-06T06:44:31;100953.98;;;4.24;55.65
25510;BME280;13413;52.336;21.200;2023-04-06T06:47:24;100948.54;;;4.31;55.92
25510;BME280;13413;52.336;21.200;2023-04-06T06:50:19;100940.83;;;4.38;55.69
25510;BME280;13413;52.336;21.200;2023-04-06T06:53:13;100945.26;;;4.45;55.63
25510;BME280;13413;52.336;21.200;2023-04-06T06:56:07;100941.30;;;4.51;55.61
25510;BME280;13413;52.336;21.200;2023-04-06T06:59:02;100942.17;;;4.56;55.47
25510;BME280;13413;52.336;21.200;2023-04-06T07:01:55;100946.66;;;4.56;55.53
25510;BME280;13413;52.336;21.200;2023-04-06T07:04:52;100940.42;;;4.55;55.53
25510;BME280;13413;52.336;21.200;2023-04-06T07:07:47;100943.42;;;4.57;55.54
25510;BME280;13413;52.336;21.200;2023-04-06T07:10:41;100940.95;;;4.55;55.60
25510;BME280;13413;52.336;21.200;2023-04-06T07:13:34;100933.95;;;4.49;55.88
25510;BME280;13413;52.336;21.200;2023-04-06T07:16:28;100933.20;;;4.52;56.00
25510;BME280;13413;52.336;21.200;2023-04-06T07:19:22;100933.86;;;4.61;55.82
25510;BME280;13413;52.336;21.200;2023-04-06T07:22:17;100931.02;;;4.68;55.89
25510;BME280;13413;52.336;21.200;2023-04-06T07:27:55;100932.17;;;4.78;55.62
25510;BME280;13413;52.336;21.200;2023-04-06T07:30:49;100938.98;;;4.78;55.50
25510;BME280;13413;52.336;21.200;2023-04-06T07:33:43;100936.83;;;4.72;55.40
25510;BME280;13413;52.336;21.200;2023-04-06T07:36:37;100938.35;;;4.66;55.59
25510;BME280;13413;52.336;21.200;2023-04-06T07:39:31;100934.38;;;4.68;55.56
25510;BME280;13413;52.336;21.200;2023-04-06T07:42:26;100934.36;;;4.67;55.40
25510;BME280;13413;52.336;21.200;2023-04-06T07:45:20;100936.17;;;4.69;55.51
25510;BME280;13413;52.336;21.200;2023-04-06T07:48:15;100935.90;;;4.72;55.55
25510;BME280;13413;52.336;21.200;2023-04-06T07:51:09;100931.87;;;4.73;55.49
25510;BME280;13413;52.336;21.200;2023-04-06T07:54:03;100928.45;;;4.73;56.02
25510;BME280;13413;52.336;21.200;2023-04-06T07:59:51;100931.57;;;4.76;56.63
25510;BME280;13413;52.336;21.200;2023-04-06T08:02:45;100931.40;;;4.78;56.85
25510;BME280;13413;52.336;21.200;2023-04-06T08:05:39;100922.53;;;4.82;57.29
25510;BME280;13413;52.336;21.200;2023-04-06T08:08:33;100922.53;;;4.86;57.54
25510;BME280;13413;52.336;21.200;2023-04-06T08:11:27;100924.61;;;4.90;57.55
25510;BME280;13413;52.336;21.200;2023-04-06T08:14:21;100923.91;;;4.90;57.49
25510;BME280;13413;52.336;21.200;2023-04-06T08:17:15;100927.14;;;4.92;57.58
25510;BME280;13413;52.336;21.200;2023-04-06T08:20:11;100928.08;;;4.91;57.96
25510;BME280;13413;52.336;21.200;2023-04-06T08:23:04;100924.58;;;4.87;57.69
25510;BME280;13413;52.336;21.200;2023-04-06T08:25:58;100922.40;;;4.83;57.63
25510;BME280;13413;52.336;21.200;2023-04-06T08:28:52;100918.60;;;4.80;57.99
25510;BME280;13413;52.336;21.200;2023-04-06T08:31:46;100918.77;;;4.79;58.03
25510;BME280;13413;52.336;21.200;2023-04-06T08:34:41;100914.98;;;4.78;57.80
25510;BME280;13413;52.336;21.200;2023-04-06T08:37:36;100916.98;;;4.75;57.99
25510;BME280;13413;52.336;21.200;2023-04-06T08:40:30;100911.15;;;4.75;57.88
25510;BME280;13413;52.336;21.200;2023-04-06T08:43:29;100912.39;;;4.81;58.04
25510;BME280;13413;52.336;21.200;2023-04-06T08:46:22;100906.62;;;4.88;57.90
25510;BME280;13413;52.336;21.200;2023-04-06T08:49:17;100908.48;;;4.90;57.98
25510;BME280;13413;52.336;21.200;2023-04-06T08:52:12;100911.86;;;4.98;58.13
25510;BME280;13413;52.336;21.200;2023-04-06T08:55:05;100908.98;;;5.03;57.58
25510;BME280;13413;52.336;21.200;2023-04-06T08:58:00;100906.36;;;5.08;57.67
25510;BME280;13413;52.336;21.200;2023-04-06T09:00:54;100903.58;;;5.03;57.94
25510;BME280;13413;52.336;21.200;2023-04-06T09:03:49;100905.48;;;4.95;57.97
25510;BME280;13413;52.336;21.200;2023-04-06T09:06:44;100899.70;;;4.91;58.05
25510;BME280;13413;52.336;21.200;2023-04-06T09:09:38;100892.23;;;4.92;58.48
25510;BME280;13413;52.336;21.200;2023-04-06T09:12:33;100884.88;;;4.96;58.46
25510;BME280;13413;52.336;21.200;2023-04-06T09:15:28;100876.71;;;4.97;58.80
25510;BME280;13413;52.336;21.200;2023-04-06T09:18:31;100879.31;;;4.95;59.07
25510;BME280;13413;52.336;21.200;2023-04-06T09:21:25;100879.21;;;4.91;59.37
25510;BME280;13413;52.336;21.200;2023-04-06T09:24:19;100872.33;;;4.85;59.53
25510;BME280;13413;52.336;21.200;2023-04-06T09:27:13;100867.11;;;4.76;59.74
25510;BME280;13413;52.336;21.200;2023-04-06T09:30:11;100867.31;;;4.71;60.33
25510;BME280;13413;52.336;21.200;2023-04-06T09:33:05;100861.02;;;4.69;60.46
25510;BME280;13413;52.336;21.200;2023-04-06T09:36:00;100854.14;;;4.70;61.13
25510;BME280;13413;52.336;21.200;2023-04-06T09:38:55;100857.52;;;4.67;61.00
25510;BME280;13413;52.336;21.200;2023-04-06T09:47:22;100843.64;;;4.74;61.40
25510;BME280;13413;52.336;21.200;2023-04-06T09:50:17;100845.01;;;4.72;61.41
25510;BME280;13413;52.336;21.200;2023-04-06T09:53:13;100839.25;;;4.72;61.46
25510;BME280;13413;52.336;21.200;2023-04-06T09:56:10;100835.66;;;4.66;61.28
25510;BME280;13413;52.336;21.200;2023-04-06T09:59:11;100832.86;;;4.64;61.50
25510;BME280;13413;52.336;21.200;2023-04-06T10:02:08;100829.14;;;4.63;61.67
25510;BME280;13413;52.336;21.200;2023-04-06T10:05:12;100824.70;;;4.63;61.77
25510;BME280;13413;52.336;21.200;2023-04-06T10:08:10;100821.97;;;4.61;62.14
25510;BME280;13413;52.336;21.200;2023-04-06T10:11:04;100819.29;;;4.57;62.03
25510;BME280;13413;52.336;21.200;2023-04-06T10:13:59;100816.73;;;4.58;62.11
25510;BME280;13413;52.336;21.200;2023-04-06T10:16:52;100815.64;;;4.59;62.51
25510;BME280;13413;52.336;21.200;2023-04-06T10:19:52;100820.25;;;4.56;62.50
25510;BME280;13413;52.336;21.200;2023-04-06T10:22:55;100816.80;;;4.55;62.81
25510;BME280;13413;52.336;21.200;2023-04-06T10:25:55;100817.38;;;4.54;62.71
25510;BME280;13413;52.336;21.200;2023-04-06T10:28:50;100823.61;;;4.56;62.93
25510;BME280;13413;52.336;21.200;2023-04-06T10:31:44;100822.94;;;4.61;63.06
25510;BME280;13413;52.336;21.200;2023-04-06T10:34:39;100814.16;;;4.68;63.27
25510;BME280;13413;52.336;21.200;2023-04-06T10:37:48;100810.52;;;4.68;63.18
25510;BME280;13413;52.336;21.200;2023-04-06T10:40:43;100811.90;;;4.66;63.39
25510;BME280;13413;52.336;21.200;2023-04-06T10:43:39;100807.69;;;4.57;63.86
25510;BME280;13413;52.336;21.200;2023-04-06T10:46:34;100807.11;;;4.56;63.86
25510;BME280;13413;52.336;21.200;2023-04-06T10:49:28;100800.81;;;4.58;63.66
25510;BME280;13413;52.336;21.200;2023-04-06T10:52:23;100798.55;;;4.58;64.09
25510;BME280;13413;52.336;21.200;2023-04-06T10:55:16;100792.07;;;4.58;64.01
25510;BME280;13413;52.336;21.200;2023-04-06T10:58:11;100792.42;;;4.60;64.00
25510;BME280;13413;52.336;21.200;2023-04-06T11:01:06;100797.48;;;4.64;64.03
25510;BME280;13413;52.336;21.200;2023-04-06T11:04:00;100795.88;;;4.63;63.92
25510;BME280;13413;52.336;21.200;2023-04-06T11:06:54;100789.23;;;4.62;64.12
25510;BME280;13413;52.336;21.200;2023-04-06T11:09:51;100793.11;;;4.64;64.31
25510;BME280;13413;52.336;21.200;2023-04-06T11:12:51;100794.13;;;4.66;64.26
25510;BME280;13413;52.336;21.200;2023-04-06T11:15:46;100788.34;;;4.71;64.20
25510;BME280;13413;52.336;21.200;2023-04-06T11:18:48;100785.10;;;4.72;63.99
25510;BME280;13413;52.336;21.200;2023-04-06T11:21:44;100781.97;;;4.76;63.90
25510;BME280;13413;52.336;21.200;2023-04-06T11:24:39;100784.77;;;4.80;64.19
25510;BME280;13413;52.336;21.200;2023-04-06T11:27:33;100785.73;;;4.83;64.12
25510;BME280;13413;52.336;21.200;2023-04-06T11:30:28;100788.05;;;4.83;63.84
25510;BME280;13413;52.336;21.200;2023-04-06T11:33:23;100788.65;;;4.82;63.92
25510;BME280;13413;52.336;21.200;2023-04-06T11:36:16;100785.18;;;4.84;63.84
25510;BME280;13413;52.336;21.200;2023-04-06T11:39:10;100782.52;;;4.86;63.62
25510;BME280;13413;52.336;21.200;2023-04-06T11:42:05;100772.58;;;4.90;63.58
25510;BME280;13413;52.336;21.200;2023-04-06T11:45:00;100769.48;;;4.95;63.75
25510;BME280;13413;52.336;21.200;2023-04-06T11:48:01;100763.46;;;4.96;63.39
25510;BME280;13413;52.336;21.200;2023-04-06T11:50:58;100756.34;;;4.99;63.49
25510;BME280;13413;52.336;21.200;2023-04-06T11:53:52;100753.05;;;5.01;63.14
25510;BME280;13413;52.336;21.200;2023-04-06T11:56:47;100750.30;;;5.04;63.40
25510;BME280;13413;52.336;21.200;2023-04-06T12:07:57;100728.23;;;5.10;63.37
25510;BME280;13413;52.336;21.200;2023-04-06T12:10:51;100722.34;;;5.11;63.24
25510;BME280;13413;52.336;21.200;2023-04-06T12:13:59;100716.95;;;5.15;63.30
25510;BME280;13413;52.336;21.200;2023-04-06T12:16:53;100716.85;;;5.16;63.15
25510;BME280;13413;52.336;21.200;2023-04-06T12:19:47;100719.33;;;5.20;63.23
25510;BME280;13413;52.336;21.200;2023-04-06T12:22:41;100715.45;;;5.25;63.16
25510;BME280;13413;52.336;21.200;2023-04-06T12:25:36;100712.05;;;5.27;63.16
25510;BME280;13413;52.336;21.200;2023-04-06T12:28:29;100714.45;;;5.28;63.06
25510;BME280;13413;52.336;21.200;2023-04-06T12:31:23;100713.48;;;5.26;63.02
25510;BME280;13413;52.336;21.200;2023-04-06T12:34:17;100717.17;;;5.28;63.06
25510;BME280;13413;52.336;21.200;2023-04-06T12:37:11;100709.65;;;5.29;62.95
25510;BME280;13413;52.336;21.200;2023-04-06T12:40:07;100704.13;;;5.31;63.22
25510;BME280;13413;52.336;21.200;2023-04-06T12:43:01;100698.48;;;5.36;63.19
25510;BME280;13413;52.336;21.200;2023-04-06T12:45:55;100697.03;;;5.34;63.05
25510;BME280;13413;52.336;21.200;2023-04-06T12:51:43;100695.66;;;5.36;63.19
25510;BME280;13413;52.336;21.200;2023-04-06T12:54:37;100694.55;;;5.36;63.33
25510;BME280;13413;52.336;21.200;2023-04-06T12:57:32;100696.98;;;5.39;63.20
25510;BME280;13413;52.336;21.200;2023-04-06T13:00:27;100696.10;;;5.39;63.06
25510;BME280;13413;52.336;21.200;2023-04-06T13:03:21;100695.54;;;5.35;63.17
25510;BME280;13413;52.336;21.200;2023-04-06T13:06:14;100685.69;;;5.34;63.16
25510;BME280;13413;52.336;21.200;2023-04-06T13:09:08;100686.39;;;5.37;63.52
25510;BME280;13413;52.336;21.200;2023-04-06T13:12:02;100684.92;;;5.42;63.22
25510;BME280;13413;52.336;21.200;2023-04-06T13:14:56;100678.84;;;5.44;63.40
25510;BME280;13413;52.336;21.200;2023-04-06T13:17:50;100676.64;;;5.45;63.31
25510;BME280;13413;52.336;21.200;2023-04-06T13:20:45;100672.95;;;5.47;63.50
25510;BME280;13413;52.336;21.200;2023-04-06T13:23:39;100667.67;;;5.49;63.66
25510;BME280;13413;52.336;21.200;2023-04-06T13:26:33;100670.54;;;5.50;63.85
25510;BME280;13413;52.336;21.200;2023-04-06T13:29:27;100675.59;;;5.53;63.94
25510;BME280;13413;52.336;21.200;2023-04-06T13:32:22;100677.08;;;5.55;63.84
25510;BME280;13413;52.336;21.200;2023-04-06T13:35:15;100672.61;;;5.54;64.04
25510;BME280;13413;52.336;21.200;2023-04-06T13:38:08;100673.86;;;5.54;63.95
25510;BME280;13413;52.336;21.200;2023-04-06T13:41:03;100673.71;;;5.54;64.03
25510;BME280;13413;52.336;21.200;2023-04-06T13:43:56;100668.10;;;5.57;64.28
25510;BME280;13413;52.336;21.200;2023-04-06T13:46:50;100663.98;;;5.61;64.37
25510;BME280;13413;52.336;21.200;2023-04-06T13:49:44;100662.98;;;5.58;64.42
25510;BME280;13413;52.336;21.200;2023-04-06T13:52:38;100661.71;;;5.58;64.52
25510;BME280;13413;52.336;21.200;2023-04-06T13:55:32;100651.41;;;5.58;64.70
25510;BME280;13413;52.336;21.200;2023-04-06T13:58:26;100649.24;;;5.57;64.86
25510;BME280;13413;52.336;21.200;2023-04-06T14:01:20;100649.75;;;5.57;65.07
25510;BME280;13413;52.336;21.200;2023-04-06T14:04:14;100646.95;;;5.57;65.34
25510;BME280;13413;52.336;21.200;2023-04-06T14:07:08;100641.23;;;5.56;65.25
25510;BME280;13413;52.336;21.200;2023-04-06T14:10:03;100645.45;;;5.56;65.35
25510;BME280;13413;52.336;21.200;2023-04-06T14:12:57;100640.19;;;5.60;65.56
25510;BME280;13413;52.336;21.200;2023-04-06T14:15:55;100639.41;;;5.65;65.72
25510;BME280;13413;52.336;21.200;2023-04-06T14:18:47;100635.68;;;5.65;65.66
25510;BME280;13413;52.336;21.200;2023-04-06T14:27:15;100635.40;;;5.63;65.46
25510;BME280;13413;52.336;21.200;2023-04-06T14:30:11;100633.55;;;5.64;65.74
25510;BME280;13413;52.336;21.200;2023-04-06T14:35:58;100633.39;;;5.71;65.83
25510;BME280;13413;52.336;21.200;2023-04-06T14:38:52;100632.36;;;5.73;65.90
25510;BME280;13413;52.336;21.200;2023-04-06T14:41:46;100627.23;;;5.73;66.00
25510;BME280;13413;52.336;21.200;2023-04-06T14:44:40;100621.04;;;5.74;66.02
25510;BME280;13413;52.336;21.200;2023-04-06T14:47:34;100619.86;;;5.71;65.79
25510;BME280;13413;52.336;21.200;2023-04-06T14:50:28;100618.25;;;5.70;65.69
25510;BME280;13413;52.336;21.200;2023-04-06T14:53:22;100607.17;;;5.68;65.66
25510;BME280;13413;52.336;21.200;2023-04-06T14:56:20;100612.98;;;5.68;65.78
25510;BME280;13413;52.336;21.200;2023-04-06T14:59:14;100621.28;;;5.71;65.91
25510;BME280;13413;52.336;21.200;2023-04-06T15:02:12;100619.44;;;5.74;65.92
25510;BME280;13413;52.336;21.200;2023-04-06T15:05:07;100619.84;;;5.74;65.98
25510;BME280;13413;52.336;21.200;2023-04-06T15:08:02;100625.11;;;5.72;66.01
25510;BME280;13413;52.336;21.200;2023-04-06T15:11:00;100626.65;;;5.72;66.11
25510;BME280;13413;52.336;21.200;2023-04-06T15:13:55;100622.77;;;5.70;66.03
25510;BME280;13413;52.336;21.200;2023-04-06T15:16:49;100629.33;;;5.71;66.14
25510;BME280;13413;52.336;21.200;2023-04-06T15:19:43;100625.09;;;5.70;66.27
25510;BME280;13413;52.336;21.200;2023-04-06T15:22:37;100620.27;;;5.69;66.38
25510;BME280;13413;52.336;21.200;2023-04-06T15:25:32;100619.78;;;5.67;66.50
25510;BME280;13413;52.336;21.200;2023-04-06T15:28:25;100617.02;;;5.64;66.74
25510;BME280;13413;52.336;21.200;2023-04-06T15:31:20;100614.08;;;5.62;66.77
25510;BME280;13413;52.336;21.200;2023-04-06T15:37:07;100608.92;;;5.61;66.74
25510;BME280;13413;52.336;21.200;2023-04-06T15:40:01;100599.14;;;5.60;66.84
25510;BME280;13413;52.336;21.200;2023-04-06T15:42:55;100587.98;;;5.57;66.93
25510;BME280;13413;52.336;21.200;2023-04-06T15:45:49;100592.17;;;5.55;66.97
25510;BME280;13413;52.336;21.200;2023-04-06T15:48:43;100595.89;;;5.53;67.06
25510;BME280;13413;52.336;21.200;2023-04-06T15:51:38;100593.16;;;5.52;67.11
25510;BME280;13413;52.336;21.200;2023-04-06T15:54:31;100598.46;;;5.52;67.36
25510;BME280;13413;52.336;21.200;2023-04-06T15:57:24;100598.14;;;5.50;67.51
25510;BME280;13413;52.336;21.200;2023-04-06T16:00:20;100602.56;;;5.47;67.72
25510;BME280;13413;52.336;21.200;2023-04-06T16:03:14;100594.92;;;5.46;67.64
25510;BME280;13413;52.336;21.200;2023-04-06T16:06:09;100592.77;;;5.45;67.83
25510;BME280;13413;52.336;21.200;2023-04-06T16:09:02;100595.41;;;5.43;68.04